Wednesday, April 25, 2018, 1:01 AM EDT

KFDK, Frederick, Frederick Municipal Airport

Location: Frederick, MD, United States Lat: 39.417
Local Time: 1:01 AM EDT ( 5:01 GMT) Lon: -77.374
Time Zone: US/Eastern Elev: 301 ft

Show me the last for .
Show Decoded

2018-04-25 00:35 METAR KFDK 250435Z AUTO 02008KT 4SM -RA BKN006 OVC014 11/11 A2999 RMK AO2 P0006
                 =
2018-04-25 00:15 METAR KFDK 250415Z AUTO 02007KT 5SM RA OVC008 11/11 A3000 RMK AO2 P0004 =
2018-04-24 23:55 METAR KFDK 250355Z AUTO 01010KT 4SM RA BKN008 OVC013 11/11 A3001 RMK AO2 P0006 =
2018-04-24 23:35 METAR KFDK 250335Z AUTO 02009KT 7SM RA BKN008 OVC013 11/11 A3001 RMK AO2 P0004 =
2018-04-24 23:15 METAR KFDK 250315Z AUTO 02007KT 5SM RA OVC008 11/11 A3003 RMK AO2 P0003 =
2018-04-24 22:55 METAR KFDK 250255Z AUTO 02007KT 5SM RA BKN010 OVC014 11/11 A3004 RMK AO2 P0005 =
2018-04-24 22:35 METAR KFDK 250235Z AUTO 03008KT 5SM DZ BKN010 OVC015 11/11 A3005 RMK AO2 P0002 =
2018-04-24 22:15 METAR KFDK 250215Z AUTO 03006KT 5SM -RA BKN010 OVC015 11/11 A3007 RMK AO2 P0002
                 =
2018-04-24 21:55 METAR KFDK 250155Z AUTO 02006KT 4SM RA BKN009 BKN013 OVC018 11/11 A3008 RMK AO2
                 P0012 =
2018-04-24 21:35 METAR KFDK 250135Z AUTO 04005KT 4SM +RA BKN009 OVC017 12/12 A3009 RMK AO2 P0007
                 =
2018-04-24 21:15 METAR KFDK 250115Z AUTO 03005KT 5SM DZ BKN011 OVC016 12/12 A3009 RMK AO2 P0001 =
2018-04-24 20:55 METAR KFDK 250055Z AUTO 05006KT 5SM -DZ BKN013 OVC020 12/12 A3009 RMK AO2 P0001
                 =
2018-04-24 19:47 METAR KFDK 242347Z 03003KT 4SM RA BKN017 OVC024 13/13 A3011 =
2018-04-24 18:47 METAR KFDK 242247Z 06005KT 10SM RA BKN033 OVC042 13/10 A3011 =
2018-04-24 17:50 METAR KFDK 242150Z 10004KTKT 7SM -RA SCT033 BKN039 OVC045 14/09 A3012 =
2018-04-24 16:47 METAR KFDK 242047Z 11007KT 10SM -RA BKN043 OVC049 16/08 A3013 =
2018-04-24 15:47 METAR KFDK 241947Z 12010G16KT 10SM DZ OVC041 16/07 A3015 =
2018-04-24 14:47 METAR KFDK 241847Z 12010G15KT 10SM BKN043 OVC049 17/07 A3018 =
2018-04-24 13:47 METAR KFDK 241747Z 14010G20KT 10SM BKN039 BKN060 OVC110 17/07 A3021 =
2018-04-24 11:47 METAR KFDK 241547Z 14010G20KT 10SM BKN040 OVC060 16/06 A3027 =
2018-04-24 10:47 METAR KFDK 241447Z 13005KT 10SM OVC048 16/06 A3028 =
2018-04-24 09:47 METAR KFDK 241347Z 13005KT 10SM OVC043 14/05 A3029 =
2018-04-24 07:47 METAR KFDK 241147Z 08003KT 10SM OVC041 13/02 A3031 =
2018-04-24 06:45 METAR KFDK 241045Z AUTO 00000KT 10SM OVC045 12/01 A3033 RMK AO2 =
2018-04-24 06:35 METAR KFDK 241035Z AUTO 00000KT 10SM SCT041 BKN048 OVC050 11/01 A3032 RMK AO2 =
2018-04-24 06:15 METAR KFDK 241015Z AUTO 00000KT 10SM BKN050 BKN120 11/00 A3032 RMK AO2 =
2018-04-24 05:55 METAR KFDK 240955Z AUTO 35003KT 10SM SCT047 SCT050 BKN120 10/00 A3033 RMK AO2 =
2018-04-24 05:35 METAR KFDK 240935Z AUTO 00000KT 10SM SCT047 SCT050 11/00 A3033 RMK AO2 =
2018-04-24 05:15 METAR KFDK 240915Z AUTO 09004KT 10SM SCT050 SCT120 12/00 A3033 RMK AO2 =
2018-04-24 04:55 METAR KFDK 240855Z AUTO 09004KT 10SM BKN050 12/00 A3033 RMK AO2 =
2018-04-24 04:35 METAR KFDK 240835Z AUTO 00000KT 10SM CLR 12/00 A3034 RMK AO2 =
2018-04-24 04:15 METAR KFDK 240815Z AUTO 10004KT 10SM CLR 12/M01 A3034 RMK AO2 =
2018-04-24 03:55 METAR KFDK 240755Z AUTO 00000KT 10SM CLR 12/M01 A3035 RMK AO2 =
2018-04-24 03:35 METAR KFDK 240735Z AUTO 12003KT 10SM CLR 11/M02 A3034 RMK AO2 =
2018-04-24 03:15 METAR KFDK 240715Z AUTO 14003KT 10SM CLR 11/M02 A3034 RMK AO2 LTG DSNT W =
2018-04-24 02:55 METAR KFDK 240655Z AUTO 00000KT 10SM CLR 11/M02 A3034 RMK AO2 =
2018-04-24 02:35 METAR KFDK 240635Z AUTO 00000KT 10SM CLR 11/M03 A3035 RMK AO2 =
2018-04-24 02:15 METAR KFDK 240615Z AUTO 00000KT 10SM CLR 12/M03 A3036 RMK AO2 =
2018-04-24 01:55 METAR KFDK 240555Z AUTO 13003KT 10SM CLR 12/M04 A3036 RMK AO2 =
2018-04-24 01:35 METAR KFDK 240535Z AUTO 12003KT 10SM CLR 12/M04 A3036 RMK AO2 LTG DSNT E =
2018-04-24 01:15 METAR KFDK 240515Z AUTO 00000KT 10SM CLR 12/M05 A3036 RMK AO2 =

Support USWX by starting your Amazon purchase here.